sensor_id;sensor_type;location;lat;lon;timestamp;temperature;humidity
11934;DHT22;6026;48.784;9.198;2023-03-11T00:01:49;3.20;99.90
11934;DHT22;6026;48.784;9.198;2023-03-11T00:04:15;3.10;99.90
11934;DHT22;6026;48.784;9.198;2023-03-11T00:06:40;3.10;99.90
11934;DHT22;6026;48.784;9.198;2023-03-11T00:09:06;3.00;99.90
11934;DHT22;6026;48.784;9.198;2023-03-11T00:11:32;3.00;99.90
11934;DHT22;6026;48.784;9.198;2023-03-11T00:13:57;2.90;99.90
11934;DHT22;6026;48.784;9.198;2023-03-11T00:16:23;2.90;99.90
11934;DHT22;6026;48.784;9.198;2023-03-11T00:18:50;2.80;99.90
11934;DHT22;6026;48.784;9.198;2023-03-11T00:21:16;2.80;99.90
11934;DHT22;6026;48.784;9.198;2023-03-11T00:23:43;2.80;99.90
11934;DHT22;6026;48.784;9.198;2023-03-11T00:26:09;2.80;99.90
11934;DHT22;6026;48.784;9.198;2023-03-11T00:28:34;2.80;99.90
11934;DHT22;6026;48.784;9.198;2023-03-11T00:31:01;2.80;99.90
11934;DHT22;6026;48.784;9.198;2023-03-11T00:33:27;2.80;99.90
11934;DHT22;6026;48.784;9.198;2023-03-11T00:35:52;2.80;99.90
11934;DHT22;6026;48.784;9.198;2023-03-11T00:38:18;2.80;99.90
11934;DHT22;6026;48.784;9.198;2023-03-11T00:40:45;2.80;99.90
11934;DHT22;6026;48.784;9.198;2023-03-11T00:43:11;2.80;99.90
11934;DHT22;6026;48.784;9.198;2023-03-11T00:45:37;2.80;99.90
11934;DHT22;6026;48.784;9.198;2023-03-11T00:48:03;2.90;99.90
11934;DHT22;6026;48.784;9.198;2023-03-11T00:50:31;2.80;99.90
11934;DHT22;6026;48.784;9.198;2023-03-11T00:52:58;2.80;99.90
11934;DHT22;6026;48.784;9.198;2023-03-11T00:55:26;2.80;99.90
11934;DHT22;6026;48.784;9.198;2023-03-11T00:57:57;2.80;99.90
11934;DHT22;6026;48.784;9.198;2023-03-11T01:00:25;2.80;99.90
11934;DHT22;6026;48.784;9.198;2023-03-11T01:02:53;2.80;99.90
11934;DHT22;6026;48.784;9.198;2023-03-11T01:05:21;2.80;99.90
11934;DHT22;6026;48.784;9.198;2023-03-11T01:07:47;2.80;99.90
11934;DHT22;6026;48.784;9.198;2023-03-11T01:10:13;2.80;99.90
11934;DHT22;6026;48.784;9.198;2023-03-11T01:12:38;2.80;99.90
11934;DHT22;6026;48.784;9.198;2023-03-11T01:15:05;2.80;99.90
11934;DHT22;6026;48.784;9.198;2023-03-11T01:17:31;2.80;99.90
11934;DHT22;6026;48.784;9.198;2023-03-11T01:19:56;2.70;99.90
11934;DHT22;6026;48.784;9.198;2023-03-11T01:22:22;2.70;99.90
11934;DHT22;6026;48.784;9.198;2023-03-11T01:24:47;2.70;99.90
11934;DHT22;6026;48.784;9.198;2023-03-11T01:27:13;2.70;99.90
11934;DHT22;6026;48.784;9.198;2023-03-11T01:29:39;2.60;99.90
11934;DHT22;6026;48.784;9.198;2023-03-11T01:32:04;2.60;99.90
11934;DHT22;6026;48.784;9.198;2023-03-11T01:34:31;2.60;99.90
11934;DHT22;6026;48.784;9.198;2023-03-11T01:37:00;2.50;99.90
11934;DHT22;6026;48.784;9.198;2023-03-11T01:39:26;2.50;99.90
11934;DHT22;6026;48.784;9.198;2023-03-11T01:41:51;2.50;99.90
11934;DHT22;6026;48.784;9.198;2023-03-11T01:44:17;2.40;99.90
11934;DHT22;6026;48.784;9.198;2023-03-11T01:49:21;2.30;99.90
11934;DHT22;6026;48.784;9.198;2023-03-11T01:51:49;2.20;99.90
11934;DHT22;6026;48.784;9.198;2023-03-11T01:54:25;2.20;99.90
11934;DHT22;6026;48.784;9.198;2023-03-11T01:56:51;2.20;99.90
11934;DHT22;6026;48.784;9.198;2023-03-11T01:59:21;2.10;99.90
11934;DHT22;6026;48.784;9.198;2023-03-11T02:02:16;2.10;99.90
11934;DHT22;6026;48.784;9.198;2023-03-11T02:04:43;2.10;99.90
11934;DHT22;6026;48.784;9.198;2023-03-11T02:07:09;2.00;99.90
11934;DHT22;6026;48.784;9.198;2023-03-11T02:09:36;2.00;99.90
11934;DHT22;6026;48.784;9.198;2023-03-11T02:12:02;2.00;99.90
11934;DHT22;6026;48.784;9.198;2023-03-11T02:14:29;2.00;99.90
11934;DHT22;6026;48.784;9.198;2023-03-11T02:16:56;1.90;99.90
11934;DHT22;6026;48.784;9.198;2023-03-11T02:22:31;2.00;99.90
11934;DHT22;6026;48.784;9.198;2023-03-11T02:25:20;1.90;99.90
11934;DHT22;6026;48.784;9.198;2023-03-11T02:27:52;2.00;99.90
11934;DHT22;6026;48.784;9.198;2023-03-11T02:30:21;1.90;99.90
11934;DHT22;6026;48.784;9.198;2023-03-11T02:32:47;1.90;99.90
11934;DHT22;6026;48.784;9.198;2023-03-11T02:35:14;1.90;99.90
11934;DHT22;6026;48.784;9.198;2023-03-11T02:37:48;1.90;99.90
11934;DHT22;6026;48.784;9.198;2023-03-11T02:43:09;1.80;99.90
11934;DHT22;6026;48.784;9.198;2023-03-11T02:45:37;1.80;99.90
11934;DHT22;6026;48.784;9.198;2023-03-11T02:48:06;1.70;99.90
11934;DHT22;6026;48.784;9.198;2023-03-11T02:50:34;1.60;99.90
11934;DHT22;6026;48.784;9.198;2023-03-11T02:53:02;1.60;99.90
11934;DHT22;6026;48.784;9.198;2023-03-11T02:55:27;1.60;99.90
11934;DHT22;6026;48.784;9.198;2023-03-11T02:57:53;1.50;99.90
11934;DHT22;6026;48.784;9.198;2023-03-11T03:00:19;1.50;99.90
11934;DHT22;6026;48.784;9.198;2023-03-11T03:02:45;1.40;99.90
11934;DHT22;6026;48.784;9.198;2023-03-11T03:05:11;1.40;99.90
11934;DHT22;6026;48.784;9.198;2023-03-11T03:07:37;1.40;99.90
11934;DHT22;6026;48.784;9.198;2023-03-11T03:10:04;1.30;99.90
11934;DHT22;6026;48.784;9.198;2023-03-11T03:12:30;1.30;99.90
11934;DHT22;6026;48.784;9.198;2023-03-11T03:14:56;1.20;99.90
11934;DHT22;6026;48.784;9.198;2023-03-11T03:17:23;1.20;99.90
11934;DHT22;6026;48.784;9.198;2023-03-11T03:19:48;1.10;99.90
11934;DHT22;6026;48.784;9.198;2023-03-11T03:22:14;1.10;99.90
11934;DHT22;6026;48.784;9.198;2023-03-11T03:24:40;1.10;99.90
11934;DHT22;6026;48.784;9.198;2023-03-11T03:27:05;1.10;99.90
11934;DHT22;6026;48.784;9.198;2023-03-11T03:29:31;1.00;99.90
11934;DHT22;6026;48.784;9.198;2023-03-11T03:31:57;1.00;99.90
11934;DHT22;6026;48.784;9.198;2023-03-11T03:34:22;0.90;99.90
11934;DHT22;6026;48.784;9.198;2023-03-11T03:36:48;0.90;99.90
11934;DHT22;6026;48.784;9.198;2023-03-11T03:39:14;0.90;99.90
11934;DHT22;6026;48.784;9.198;2023-03-11T03:41:40;0.90;99.90
11934;DHT22;6026;48.784;9.198;2023-03-11T03:44:05;0.90;99.90
11934;DHT22;6026;48.784;9.198;2023-03-11T03:46:31;0.90;99.90
11934;DHT22;6026;48.784;9.198;2023-03-11T03:48:56;0.80;99.90
11934;DHT22;6026;48.784;9.198;2023-03-11T03:51:22;0.80;99.90
11934;DHT22;6026;48.784;9.198;2023-03-11T03:53:48;0.70;99.90
11934;DHT22;6026;48.784;9.198;2023-03-11T03:56:15;0.70;99.90
11934;DHT22;6026;48.784;9.198;2023-03-11T03:58:41;0.70;99.90
11934;DHT22;6026;48.784;9.198;2023-03-11T04:01:07;0.70;99.90
11934;DHT22;6026;48.784;9.198;2023-03-11T04:03:33;0.70;99.90
11934;DHT22;6026;48.784;9.198;2023-03-11T04:06:10;0.70;99.90
11934;DHT22;6026;48.784;9.198;2023-03-11T04:08:38;0.70;99.90
11934;DHT22;6026;48.784;9.198;2023-03-11T04:11:04;0.60;99.90
11934;DHT22;6026;48.784;9.198;2023-03-11T04:13:30;0.60;99.90
11934;DHT22;6026;48.784;9.198;2023-03-11T04:15:56;0.60;99.90
11934;DHT22;6026;48.784;9.198;2023-03-11T04:18:21;0.60;99.90
11934;DHT22;6026;48.784;9.198;2023-03-11T04:20:47;0.60;99.90
11934;DHT22;6026;48.784;9.198;2023-03-11T04:23:13;0.60;99.90
11934;DHT22;6026;48.784;9.198;2023-03-11T04:25:38;0.60;99.90
11934;DHT22;6026;48.784;9.198;2023-03-11T04:28:04;0.60;99.90
11934;DHT22;6026;48.784;9.198;2023-03-11T04:30:29;0.60;99.90
11934;DHT22;6026;48.784;9.198;2023-03-11T04:32:55;0.60;99.90
11934;DHT22;6026;48.784;9.198;2023-03-11T04:35:20;0.60;99.90
11934;DHT22;6026;48.784;9.198;2023-03-11T04:37:46;0.50;99.90
11934;DHT22;6026;48.784;9.198;2023-03-11T04:40:12;0.50;99.90
11934;DHT22;6026;48.784;9.198;2023-03-11T04:42:37;0.50;99.90
11934;DHT22;6026;48.784;9.198;2023-03-11T04:45:04;0.50;99.90
11934;DHT22;6026;48.784;9.198;2023-03-11T04:47:30;0.40;99.90
11934;DHT22;6026;48.784;9.198;2023-03-11T04:49:55;0.40;99.90
11934;DHT22;6026;48.784;9.198;2023-03-11T04:52:21;0.40;99.90
11934;DHT22;6026;48.784;9.198;2023-03-11T04:54:47;0.40;99.90
11934;DHT22;6026;48.784;9.198;2023-03-11T04:57:13;0.40;99.90
11934;DHT22;6026;48.784;9.198;2023-03-11T04:59:38;0.30;99.90
11934;DHT22;6026;48.784;9.198;2023-03-11T05:02:04;0.30;99.90
11934;DHT22;6026;48.784;9.198;2023-03-11T05:04:29;0.40;99.90
11934;DHT22;6026;48.784;9.198;2023-03-11T05:06:55;0.40;99.90
11934;DHT22;6026;48.784;9.198;2023-03-11T05:09:21;0.40;99.90
11934;DHT22;6026;48.784;9.198;2023-03-11T05:11:46;0.30;99.90
11934;DHT22;6026;48.784;9.198;2023-03-11T05:14:12;0.30;99.90
11934;DHT22;6026;48.784;9.198;2023-03-11T05:16:37;0.30;99.90
11934;DHT22;6026;48.784;9.198;2023-03-11T05:19:03;0.30;99.90
11934;DHT22;6026;48.784;9.198;2023-03-11T05:21:52;0.30;99.90
11934;DHT22;6026;48.784;9.198;2023-03-11T05:24:18;0.20;99.90
11934;DHT22;6026;48.784;9.198;2023-03-11T05:26:43;0.20;99.90
11934;DHT22;6026;48.784;9.198;2023-03-11T05:29:09;0.30;99.90
11934;DHT22;6026;48.784;9.198;2023-03-11T05:31:35;0.20;99.90
11934;DHT22;6026;48.784;9.198;2023-03-11T05:34:00;0.20;99.90
11934;DHT22;6026;48.784;9.198;2023-03-11T05:36:26;0.20;99.90
11934;DHT22;6026;48.784;9.198;2023-03-11T05:38:51;0.20;99.90
11934;DHT22;6026;48.784;9.198;2023-03-11T05:41:17;0.20;99.90
11934;DHT22;6026;48.784;9.198;2023-03-11T05:43:43;0.20;99.90
11934;DHT22;6026;48.784;9.198;2023-03-11T05:46:09;0.20;99.90
11934;DHT22;6026;48.784;9.198;2023-03-11T05:48:36;0.20;99.90
11934;DHT22;6026;48.784;9.198;2023-03-11T05:51:09;0.20;99.90
11934;DHT22;6026;48.784;9.198;2023-03-11T05:53:35;0.20;99.90
11934;DHT22;6026;48.784;9.198;2023-03-11T05:56:00;0.20;99.90
11934;DHT22;6026;48.784;9.198;2023-03-11T05:58:30;0.20;99.90
11934;DHT22;6026;48.784;9.198;2023-03-11T06:00:56;0.20;99.90
11934;DHT22;6026;48.784;9.198;2023-03-11T06:03:23;0.20;99.90
11934;DHT22;6026;48.784;9.198;2023-03-11T06:05:50;0.20;99.90
11934;DHT22;6026;48.784;9.198;2023-03-11T06:08:17;0.20;99.90
11934;DHT22;6026;48.784;9.198;2023-03-11T06:10:43;0.20;99.90
11934;DHT22;6026;48.784;9.198;2023-03-11T06:13:09;0.20;99.90
11934;DHT22;6026;48.784;9.198;2023-03-11T06:15:36;0.20;99.90
11934;DHT22;6026;48.784;9.198;2023-03-11T06:18:02;0.30;99.90
11934;DHT22;6026;48.784;9.198;2023-03-11T06:20:28;0.30;99.90
11934;DHT22;6026;48.784;9.198;2023-03-11T06:22:54;0.30;99.90
11934;DHT22;6026;48.784;9.198;2023-03-11T06:25:20;0.40;99.90
11934;DHT22;6026;48.784;9.198;2023-03-11T06:27:50;0.50;99.90
11934;DHT22;6026;48.784;9.198;2023-03-11T06:30:18;0.60;99.90
11934;DHT22;6026;48.784;9.198;2023-03-11T06:32:47;0.70;99.90
11934;DHT22;6026;48.784;9.198;2023-03-11T06:35:13;0.90;99.90
11934;DHT22;6026;48.784;9.198;2023-03-11T06:37:38;1.00;99.90
11934;DHT22;6026;48.784;9.198;2023-03-11T06:40:06;1.10;99.90
11934;DHT22;6026;48.784;9.198;2023-03-11T06:42:32;1.20;99.90
11934;DHT22;6026;48.784;9.198;2023-03-11T06:44:58;1.30;99.90
11934;DHT22;6026;48.784;9.198;2023-03-11T06:47:23;1.20;99.90
11934;DHT22;6026;48.784;9.198;2023-03-11T06:49:50;1.20;99.90
11934;DHT22;6026;48.784;9.198;2023-03-11T06:52:15;1.10;99.90
11934;DHT22;6026;48.784;9.198;2023-03-11T06:54:41;1.00;99.90
11934;DHT22;6026;48.784;9.198;2023-03-11T06:57:07;1.00;99.90
11934;DHT22;6026;48.784;9.198;2023-03-11T06:59:34;1.00;99.90
11934;DHT22;6026;48.784;9.198;2023-03-11T07:01:59;1.10;99.90
11934;DHT22;6026;48.784;9.198;2023-03-11T07:04:25;1.10;99.90
11934;DHT22;6026;48.784;9.198;2023-03-11T07:06:51;1.30;99.90
11934;DHT22;6026;48.784;9.198;2023-03-11T07:09:16;1.50;99.90
11934;DHT22;6026;48.784;9.198;2023-03-11T07:11:42;1.70;99.90
11934;DHT22;6026;48.784;9.198;2023-03-11T07:14:08;2.00;99.90
11934;DHT22;6026;48.784;9.198;2023-03-11T07:16:33;2.30;99.90
11934;DHT22;6026;48.784;9.198;2023-03-11T07:19:00;2.50;99.90
11934;DHT22;6026;48.784;9.198;2023-03-11T07:21:29;2.60;99.90
11934;DHT22;6026;48.784;9.198;2023-03-11T07:23:58;2.80;99.90
11934;DHT22;6026;48.784;9.198;2023-03-11T07:26:25;2.80;99.90
11934;DHT22;6026;48.784;9.198;2023-03-11T07:28:53;3.00;99.90
11934;DHT22;6026;48.784;9.198;2023-03-11T07:31:20;3.00;99.90
11934;DHT22;6026;48.784;9.198;2023-03-11T07:33:48;3.20;99.90
11934;DHT22;6026;48.784;9.198;2023-03-11T07:36:16;3.20;99.90
11934;DHT22;6026;48.784;9.198;2023-03-11T07:38:42;3.30;99.90
11934;DHT22;6026;48.784;9.198;2023-03-11T07:41:09;3.60;99.90
11934;DHT22;6026;48.784;9.198;2023-03-11T07:43:35;4.00;99.90
11934;DHT22;6026;48.784;9.198;2023-03-11T07:46:13;4.30;99.90
11934;DHT22;6026;48.784;9.198;2023-03-11T07:48:40;4.20;99.90
11934;DHT22;6026;48.784;9.198;2023-03-11T07:51:10;4.60;99.90
11934;DHT22;6026;48.784;9.198;2023-03-11T07:53:35;5.00;99.90
11934;DHT22;6026;48.784;9.198;2023-03-11T07:56:02;5.50;99.90
11934;DHT22;6026;48.784;9.198;2023-03-11T07:58:28;5.60;99.90
11934;DHT22;6026;48.784;9.198;2023-03-11T08:00:54;6.10;99.90
11934;DHT22;6026;48.784;9.198;2023-03-11T08:03:24;6.30;99.90
11934;DHT22;6026;48.784;9.198;2023-03-11T08:05:50;6.60;99.90
11934;DHT22;6026;48.784;9.198;2023-03-11T08:08:16;6.50;99.90
11934;DHT22;6026;48.784;9.198;2023-03-11T08:10:42;6.60;99.90
11934;DHT22;6026;48.784;9.198;2023-03-11T08:13:07;6.80;99.90
11934;DHT22;6026;48.784;9.198;2023-03-11T08:15:33;7.10;99.90
11934;DHT22;6026;48.784;9.198;2023-03-11T08:17:58;7.30;99.90
11934;DHT22;6026;48.784;9.198;2023-03-11T08:20:24;7.60;99.90
11934;DHT22;6026;48.784;9.198;2023-03-11T08:22:49;7.90;99.90
11934;DHT22;6026;48.784;9.198;2023-03-11T08:25:15;8.00;99.90
11934;DHT22;6026;48.784;9.198;2023-03-11T08:27:42;8.10;99.90
11934;DHT22;6026;48.784;9.198;2023-03-11T08:30:08;8.40;99.90
11934;DHT22;6026;48.784;9.198;2023-03-11T08:32:34;8.70;99.90
11934;DHT22;6026;48.784;9.198;2023-03-11T08:35:00;8.70;99.90
11934;DHT22;6026;48.784;9.198;2023-03-11T08:37:25;8.90;99.90
11934;DHT22;6026;48.784;9.198;2023-03-11T08:39:51;9.00;99.90
11934;DHT22;6026;48.784;9.198;2023-03-11T08:42:17;9.10;99.90
11934;DHT22;6026;48.784;9.198;2023-03-11T08:44:43;9.20;99.90
11934;DHT22;6026;48.784;9.198;2023-03-11T08:47:09;9.40;99.90
11934;DHT22;6026;48.784;9.198;2023-03-11T08:49:36;9.50;99.90
11934;DHT22;6026;48.784;9.198;2023-03-11T08:52:02;9.40;99.90
11934;DHT22;6026;48.784;9.198;2023-03-11T08:54:28;9.70;99.90
11934;DHT22;6026;48.784;9.198;2023-03-11T08:56:54;9.80;99.90
11934;DHT22;6026;48.784;9.198;2023-03-11T08:59:19;9.90;99.90
11934;DHT22;6026;48.784;9.198;2023-03-11T09:01:45;10.10;99.90
11934;DHT22;6026;48.784;9.198;2023-03-11T09:04:11;10.20;99.90
11934;DHT22;6026;48.784;9.198;2023-03-11T09:06:43;10.10;99.90
11934;DHT22;6026;48.784;9.198;2023-03-11T09:09:10;10.10;99.90
11934;DHT22;6026;48.784;9.198;2023-03-11T09:11:36;10.20;99.90
11934;DHT22;6026;48.784;9.198;2023-03-11T09:14:03;10.60;99.90
11934;DHT22;6026;48.784;9.198;2023-03-11T09:16:29;10.80;99.90
11934;DHT22;6026;48.784;9.198;2023-03-11T09:18:54;11.10;99.90
11934;DHT22;6026;48.784;9.198;2023-03-11T09:21:20;10.80;99.90
11934;DHT22;6026;48.784;9.198;2023-03-11T09:23:46;10.60;99.90
11934;DHT22;6026;48.784;9.198;2023-03-11T09:26:13;10.20;99.90
11934;DHT22;6026;48.784;9.198;2023-03-11T09:28:39;9.90;99.90
11934;DHT22;6026;48.784;9.198;2023-03-11T09:31:05;9.50;99.90
11934;DHT22;6026;48.784;9.198;2023-03-11T09:33:32;9.20;99.90
11934;DHT22;6026;48.784;9.198;2023-03-11T09:36:00;8.80;99.90
11934;DHT22;6026;48.784;9.198;2023-03-11T09:38:25;8.80;99.90
11934;DHT22;6026;48.784;9.198;2023-03-11T09:41:38;9.20;99.90
11934;DHT22;6026;48.784;9.198;2023-03-11T09:44:03;9.40;99.90
11934;DHT22;6026;48.784;9.198;2023-03-11T09:49:21;9.70;99.90
11934;DHT22;6026;48.784;9.198;2023-03-11T09:54:24;10.20;99.90
11934;DHT22;6026;48.784;9.198;2023-03-11T09:56:53;10.40;99.90
11934;DHT22;6026;48.784;9.198;2023-03-11T09:59:29;10.40;99.90
11934;DHT22;6026;48.784;9.198;2023-03-11T10:01:55;10.00;99.90
11934;DHT22;6026;48.784;9.198;2023-03-11T10:06:48;10.30;99.90
11934;DHT22;6026;48.784;9.198;2023-03-11T10:09:37;10.70;99.90
11934;DHT22;6026;48.784;9.198;2023-03-11T10:14:53;10.30;99.90
11934;DHT22;6026;48.784;9.198;2023-03-11T10:17:45;9.40;99.90
11934;DHT22;6026;48.784;9.198;2023-03-11T10:20:28;8.70;99.90
11934;DHT22;6026;48.784;9.198;2023-03-11T10:23:21;8.30;99.90
11934;DHT22;6026;48.784;9.198;2023-03-11T10:26:17;8.20;99.90
11934;DHT22;6026;48.784;9.198;2023-03-11T10:28:52;7.90;99.90
11934;DHT22;6026;48.784;9.198;2023-03-11T10:31:43;7.80;99.90
11934;DHT22;6026;48.784;9.198;2023-03-11T10:34:22;8.10;99.90
11934;DHT22;6026;48.784;9.198;2023-03-11T10:37:16;8.80;99.90
11934;DHT22;6026;48.784;9.198;2023-03-11T10:39:46;9.40;99.90
11934;DHT22;6026;48.784;9.198;2023-03-11T10:42:17;10.10;99.90
11934;DHT22;6026;48.784;9.198;2023-03-11T10:44:44;10.60;99.50
11934;DHT22;6026;48.784;9.198;2023-03-11T10:47:18;11.10;99.90
11934;DHT22;6026;48.784;9.198;2023-03-11T10:49:44;12.00;99.90
11934;DHT22;6026;48.784;9.198;2023-03-11T10:52:11;12.60;99.90
11934;DHT22;6026;48.784;9.198;2023-03-11T10:54:42;13.30;99.30
11934;DHT22;6026;48.784;9.198;2023-03-11T10:59:50;13.90;97.10
11934;DHT22;6026;48.784;9.198;2023-03-11T11:05:05;14.20;96.60
11934;DHT22;6026;48.784;9.198;2023-03-11T11:07:35;14.40;95.40
11934;DHT22;6026;48.784;9.198;2023-03-11T11:12:36;13.80;94.70
11934;DHT22;6026;48.784;9.198;2023-03-11T11:15:02;14.00;94.40
11934;DHT22;6026;48.784;9.198;2023-03-11T11:17:32;14.20;92.60
11934;DHT22;6026;48.784;9.198;2023-03-11T11:20:00;13.60;93.90
11934;DHT22;6026;48.784;9.198;2023-03-11T11:22:37;13.70;94.90
11934;DHT22;6026;48.784;9.198;2023-03-11T11:25:36;13.90;94.40
11934;DHT22;6026;48.784;9.198;2023-03-11T11:28:22;14.10;92.40
11934;DHT22;6026;48.784;9.198;2023-03-11T11:30:56;14.00;92.30
11934;DHT22;6026;48.784;9.198;2023-03-11T11:33:37;13.80;92.60
11934;DHT22;6026;48.784;9.198;2023-03-11T11:36:05;14.70;94.50
11934;DHT22;6026;48.784;9.198;2023-03-11T11:38:41;14.90;93.60
11934;DHT22;6026;48.784;9.198;2023-03-11T11:41:18;14.80;94.40
11934;DHT22;6026;48.784;9.198;2023-03-11T11:43:52;14.50;94.90
11934;DHT22;6026;48.784;9.198;2023-03-11T11:46:29;14.20;94.00
11934;DHT22;6026;48.784;9.198;2023-03-11T11:49:15;13.40;93.10
11934;DHT22;6026;48.784;9.198;2023-03-11T11:51:54;12.40;93.20
11934;DHT22;6026;48.784;9.198;2023-03-11T11:56:55;11.30;95.30
11934;DHT22;6026;48.784;9.198;2023-03-11T11:59:22;10.90;95.70
11934;DHT22;6026;48.784;9.198;2023-03-11T12:04:49;10.20;96.50
11934;DHT22;6026;48.784;9.198;2023-03-11T12:12:33;10.00;98.00
11934;DHT22;6026;48.784;9.198;2023-03-11T12:15:14;9.80;98.60
11934;DHT22;6026;48.784;9.198;2023-03-11T12:17:43;9.70;99.20
11934;DHT22;6026;48.784;9.198;2023-03-11T12:20:33;9.90;98.10
11934;DHT22;6026;48.784;9.198;2023-03-11T12:28:36;8.90;97.80
11934;DHT22;6026;48.784;9.198;2023-03-11T12:31:08;8.70;97.50
11934;DHT22;6026;48.784;9.198;2023-03-11T12:33:41;8.10;97.90
11934;DHT22;6026;48.784;9.198;2023-03-11T12:36:24;7.90;98.70
11934;DHT22;6026;48.784;9.198;2023-03-11T12:38:53;7.80;98.80
11934;DHT22;6026;48.784;9.198;2023-03-11T12:41:29;7.90;98.30
11934;DHT22;6026;48.784;9.198;2023-03-11T12:44:03;8.00;99.20
11934;DHT22;6026;48.784;9.198;2023-03-11T12:49:26;7.80;99.20
11934;DHT22;6026;48.784;9.198;2023-03-11T12:54:37;9.20;98.40
11934;DHT22;6026;48.784;9.198;2023-03-11T12:57:35;9.60;99.20
11934;DHT22;6026;48.784;9.198;2023-03-11T13:08:18;10.10;97.50
11934;DHT22;6026;48.784;9.198;2023-03-11T13:10:45;10.30;96.20
11934;DHT22;6026;48.784;9.198;2023-03-11T13:13:28;10.90;96.50
11934;DHT22;6026;48.784;9.198;2023-03-11T13:15:54;11.20;95.60
11934;DHT22;6026;48.784;9.198;2023-03-11T13:18:26;11.70;97.80
11934;DHT22;6026;48.784;9.198;2023-03-11T13:21:04;12.20;97.60
11934;DHT22;6026;48.784;9.198;2023-03-11T13:23:37;12.40;96.20
11934;DHT22;6026;48.784;9.198;2023-03-11T13:29:23;13.10;94.40
11934;DHT22;6026;48.784;9.198;2023-03-11T13:32:16;13.60;95.90
11934;DHT22;6026;48.784;9.198;2023-03-11T13:35:11;14.00;93.80
11934;DHT22;6026;48.784;9.198;2023-03-11T13:42:56;13.70;93.40
11934;DHT22;6026;48.784;9.198;2023-03-11T13:47:56;13.50;93.10
11934;DHT22;6026;48.784;9.198;2023-03-11T13:50:27;13.70;93.60
11934;DHT22;6026;48.784;9.198;2023-03-11T13:52:55;13.90;93.10
11934;DHT22;6026;48.784;9.198;2023-03-11T13:55:27;14.10;92.70
11934;DHT22;6026;48.784;9.198;2023-03-11T13:57:55;13.30;92.70
11934;DHT22;6026;48.784;9.198;2023-03-11T14:00:23;13.60;92.60
11934;DHT22;6026;48.784;9.198;2023-03-11T14:03:03;13.40;91.60
11934;DHT22;6026;48.784;9.198;2023-03-11T14:05:39;13.70;93.20
11934;DHT22;6026;48.784;9.198;2023-03-11T14:08:27;14.00;93.10
11934;DHT22;6026;48.784;9.198;2023-03-11T14:10:58;13.80;92.60
11934;DHT22;6026;48.784;9.198;2023-03-11T14:13:46;13.70;94.30
11934;DHT22;6026;48.784;9.198;2023-03-11T14:16:19;13.80;93.30
11934;DHT22;6026;48.784;9.198;2023-03-11T14:21:26;12.60;93.70
11934;DHT22;6026;48.784;9.198;2023-03-11T14:23:53;11.90;94.40
11934;DHT22;6026;48.784;9.198;2023-03-11T14:26:29;12.20;94.20
11934;DHT22;6026;48.784;9.198;2023-03-11T14:28:57;12.10;95.10
11934;DHT22;6026;48.784;9.198;2023-03-11T14:31:32;12.10;96.40
11934;DHT22;6026;48.784;9.198;2023-03-11T14:36:48;11.90;95.80
11934;DHT22;6026;48.784;9.198;2023-03-11T14:39:36;11.90;95.40
11934;DHT22;6026;48.784;9.198;2023-03-11T14:42:21;11.70;95.90
11934;DHT22;6026;48.784;9.198;2023-03-11T14:45:03;11.30;95.70
11934;DHT22;6026;48.784;9.198;2023-03-11T14:48:04;11.00;96.00
11934;DHT22;6026;48.784;9.198;2023-03-11T14:50:30;10.70;96.50
11934;DHT22;6026;48.784;9.198;2023-03-11T14:53:29;10.50;96.90
11934;DHT22;6026;48.784;9.198;2023-03-11T14:55:59;10.10;97.00
11934;DHT22;6026;48.784;9.198;2023-03-11T14:58:39;9.80;97.70
11934;DHT22;6026;48.784;9.198;2023-03-11T15:01:09;9.70;98.60
11934;DHT22;6026;48.784;9.198;2023-03-11T15:03:46;9.70;98.60
11934;DHT22;6026;48.784;9.198;2023-03-11T15:06:15;9.60;99.20
11934;DHT22;6026;48.784;9.198;2023-03-11T15:08:51;9.40;99.40
11934;DHT22;6026;48.784;9.198;2023-03-11T15:11:22;9.30;99.20
11934;DHT22;6026;48.784;9.198;2023-03-11T15:13:50;9.20;98.90
11934;DHT22;6026;48.784;9.198;2023-03-11T15:16:23;9.00;99.50
11934;DHT22;6026;48.784;9.198;2023-03-11T15:18:49;9.00;99.90
11934;DHT22;6026;48.784;9.198;2023-03-11T15:21:17;8.80;99.90
11934;DHT22;6026;48.784;9.198;2023-03-11T15:23:52;8.70;99.90
11934;DHT22;6026;48.784;9.198;2023-03-11T15:26:29;8.70;99.90
11934;DHT22;6026;48.784;9.198;2023-03-11T15:29:12;8.70;99.90
11934;DHT22;6026;48.784;9.198;2023-03-11T15:31:38;8.60;99.90
11934;DHT22;6026;48.784;9.198;2023-03-11T15:34:21;8.50;99.90
11934;DHT22;6026;48.784;9.198;2023-03-11T15:39:55;8.30;99.90
11934;DHT22;6026;48.784;9.198;2023-03-11T15:42:21;8.20;99.90
11934;DHT22;6026;48.784;9.198;2023-03-11T15:47:22;7.80;99.90
11934;DHT22;6026;48.784;9.198;2023-03-11T15:49:48;7.80;99.90
11934;DHT22;6026;48.784;9.198;2023-03-11T15:52:14;7.70;99.90
11934;DHT22;6026;48.784;9.198;2023-03-11T15:54:40;7.60;99.90
11934;DHT22;6026;48.784;9.198;2023-03-11T15:57:20;7.60;99.90
11934;DHT22;6026;48.784;9.198;2023-03-11T15:59:48;7.50;99.90
11934;DHT22;6026;48.784;9.198;2023-03-11T16:02:21;7.40;99.90
11934;DHT22;6026;48.784;9.198;2023-03-11T16:04:47;7.10;99.90
11934;DHT22;6026;48.784;9.198;2023-03-11T16:07:13;7.00;99.90
11934;DHT22;6026;48.784;9.198;2023-03-11T16:09:38;6.90;99.90
11934;DHT22;6026;48.784;9.198;2023-03-11T16:12:30;6.80;99.90
11934;DHT22;6026;48.784;9.198;2023-03-11T16:14:56;6.70;99.90
11934;DHT22;6026;48.784;9.198;2023-03-11T16:17:21;6.70;99.90
11934;DHT22;6026;48.784;9.198;2023-03-11T16:19:47;6.60;99.90
11934;DHT22;6026;48.784;9.198;2023-03-11T16:22:18;6.60;99.90
11934;DHT22;6026;48.784;9.198;2023-03-11T16:24:50;6.60;99.90
11934;DHT22;6026;48.784;9.198;2023-03-11T16:27:17;6.60;99.90
11934;DHT22;6026;48.784;9.198;2023-03-11T16:29:46;6.50;99.90
11934;DHT22;6026;48.784;9.198;2023-03-11T16:32:12;6.40;99.90
11934;DHT22;6026;48.784;9.198;2023-03-11T16:34:38;6.30;99.90
11934;DHT22;6026;48.784;9.198;2023-03-11T16:37:05;6.30;99.90
11934;DHT22;6026;48.784;9.198;2023-03-11T16:39:31;6.20;99.90
11934;DHT22;6026;48.784;9.198;2023-03-11T16:41:56;6.10;99.90
11934;DHT22;6026;48.784;9.198;2023-03-11T16:44:22;6.10;99.90
11934;DHT22;6026;48.784;9.198;2023-03-11T16:46:48;6.00;99.90
11934;DHT22;6026;48.784;9.198;2023-03-11T16:49:13;5.90;99.90
11934;DHT22;6026;48.784;9.198;2023-03-11T16:51:39;5.90;99.90
11934;DHT22;6026;48.784;9.198;2023-03-11T16:54:04;5.90;99.90
11934;DHT22;6026;48.784;9.198;2023-03-11T16:56:30;5.80;99.90
11934;DHT22;6026;48.784;9.198;2023-03-11T16:58:56;5.80;99.90
11934;DHT22;6026;48.784;9.198;2023-03-11T17:01:21;5.60;99.90
11934;DHT22;6026;48.784;9.198;2023-03-11T17:03:49;5.60;99.90
11934;DHT22;6026;48.784;9.198;2023-03-11T17:06:16;5.60;99.90
11934;DHT22;6026;48.784;9.198;2023-03-11T17:08:41;5.50;99.90
11934;DHT22;6026;48.784;9.198;2023-03-11T17:11:15;5.50;99.90
11934;DHT22;6026;48.784;9.198;2023-03-11T17:13:41;5.50;99.90
11934;DHT22;6026;48.784;9.198;2023-03-11T17:16:06;5.50;99.90
11934;DHT22;6026;48.784;9.198;2023-03-11T17:18:32;5.40;99.90
11934;DHT22;6026;48.784;9.198;2023-03-11T17:20:57;5.30;99.90
11934;DHT22;6026;48.784;9.198;2023-03-11T17:23:25;5.30;99.90
11934;DHT22;6026;48.784;9.198;2023-03-11T17:25:50;5.30;99.90
11934;DHT22;6026;48.784;9.198;2023-03-11T17:28:16;5.30;99.90
11934;DHT22;6026;48.784;9.198;2023-03-11T17:30:42;5.20;99.90